createdAt,value
2017-11-22T00:00:00.689Z,92.32
2017-11-22T00:01:00.665Z,92.51
2017-11-22T00:02:00.645Z,92.60
2017-11-22T00:03:00.629Z,92.03
2017-11-22T00:04:00.607Z,91.84
2017-11-22T00:05:00.590Z,92.22
2017-11-22T00:06:00.570Z,92.60
2017-11-22T00:07:00.550Z,92.03
2017-11-22T00:08:00.537Z,92.51
2017-11-22T00:09:00.515Z,92.32
2017-11-22T00:10:00.499Z,92.32
2017-11-22T00:11:00.475Z,92.32
2017-11-22T00:12:00.461Z,92.22
2017-11-22T00:13:00.436Z,92.79
2017-11-22T00:14:00.420Z,92.22
2017-11-22T00:15:00.398Z,91.94
2017-11-22T00:16:00.379Z,92.13
2017-11-22T00:17:00.371Z,91.94
2017-11-22T00:18:00.340Z,92.41
2017-11-22T00:19:00.325Z,92.51
2017-11-22T00:20:00.308Z,92.03
2017-11-22T00:21:00.298Z,92.13
2017-11-22T00:22:00.278Z,92.13
2017-11-22T00:23:00.253Z,92.22
2017-11-22T00:24:00.228Z,92.13
2017-11-22T00:25:00.209Z,91.65
2017-11-22T00:26:00.189Z,91.84
2017-11-22T00:27:00.176Z,92.22
2017-11-22T00:28:00.166Z,92.41
2017-11-22T00:29:00.141Z,93.18
2017-11-22T00:30:00.122Z,92.79
2017-11-22T00:31:00.100Z,92.22
2017-11-22T00:32:00.089Z,92.99
2017-11-22T00:33:00.065Z,93.37
2017-11-22T00:34:00.051Z,92.22
2017-11-22T00:35:00.035Z,92.60
2017-11-22T00:36:00.018Z,92.13
2017-11-22T00:36:59.990Z,92.13
2017-11-22T00:37:59.970Z,91.65
2017-11-22T00:38:59.959Z,92.32
2017-11-22T00:39:59.932Z,91.94
2017-11-22T00:40:59.916Z,92.60
2017-11-22T00:41:59.898Z,92.03
2017-11-22T00:42:59.876Z,92.13
2017-11-22T00:43:59.864Z,92.60
2017-11-22T00:44:59.844Z,92.41
2017-11-22T00:45:59.821Z,92.32
2017-11-22T00:46:59.804Z,91.94
2017-11-22T00:47:59.780Z,92.13
2017-11-22T00:48:59.766Z,91.75
2017-11-22T00:49:59.742Z,92.41
2017-11-22T00:50:59.735Z,92.22
2017-11-22T00:51:59.712Z,91.75
2017-11-22T00:52:59.690Z,91.17
2017-11-22T00:53:59.669Z,92.13
2017-11-22T00:54:59.651Z,92.51
2017-11-22T00:55:59.632Z,92.13
2017-11-22T00:56:59.612Z,91.65
2017-11-22T00:57:59.593Z,92.13
2017-11-22T00:58:59.575Z,92.13
2017-11-22T00:59:59.560Z,91.94
2017-11-22T01:00:59.540Z,92.03
2017-11-22T01:01:59.522Z,92.22
2017-11-22T01:02:59.500Z,92.13
2017-11-22T01:03:59.479Z,92.13
2017-11-22T01:04:59.463Z,92.13
2017-11-22T01:05:59.441Z,92.22
2017-11-22T01:06:59.442Z,92.03
2017-11-22T01:07:59.403Z,92.60
2017-11-22T01:08:59.388Z,91.94
2017-11-22T01:09:59.370Z,91.94
2017-11-22T01:10:59.349Z,92.32
2017-11-22T01:11:59.330Z,92.60
2017-11-22T01:12:59.318Z,92.41
2017-11-22T01:13:59.290Z,92.32
2017-11-22T01:14:59.271Z,92.60
2017-11-22T01:15:59.252Z,91.94
2017-11-22T01:16:59.235Z,92.22
2017-11-22T01:17:59.219Z,91.75
2017-11-22T01:18:59.195Z,91.94
2017-11-22T01:19:59.184Z,91.94
2017-11-22T01:20:59.171Z,91.56
2017-11-22T01:21:59.140Z,91.27
2017-11-22T01:22:59.123Z,91.75
2017-11-22T01:23:59.109Z,91.56
2017-11-22T01:24:59.085Z,91.94
2017-11-22T01:25:59.066Z,91.65
2017-11-22T01:26:59.052Z,92.13
2017-11-22T01:27:59.029Z,92.22
2017-11-22T01:28:59.011Z,92.60
2017-11-22T01:29:58.998Z,92.51
2017-11-22T01:30:58.973Z,91.84
2017-11-22T01:31:58.957Z,92.32
2017-11-22T01:32:58.940Z,92.32
2017-11-22T01:33:58.918Z,91.75
2017-11-22T01:34:58.897Z,91.46
2017-11-22T01:35:58.877Z,91.65
2017-11-22T01:36:58.854Z,91.75
2017-11-22T01:37:58.830Z,91.17
2017-11-22T01:38:58.817Z,91.17
2017-11-22T01:39:58.797Z,91.56
2017-11-22T01:40:58.775Z,91.75
2017-11-22T01:41:58.761Z,91.84
2017-11-22T01:42:58.738Z,92.60
2017-11-22T01:43:58.720Z,92.41
2017-11-22T01:44:58.704Z,91.65
2017-11-22T01:45:58.681Z,91.56
2017-11-22T01:46:58.664Z,91.46
2017-11-22T01:47:58.648Z,91.37
2017-11-22T01:48:58.629Z,92.22
2017-11-22T01:49:58.607Z,91.75
2017-11-22T01:50:58.589Z,91.56
2017-11-22T01:51:58.571Z,91.56
2017-11-22T01:52:58.554Z,91.75
2017-11-22T01:53:58.534Z,91.75
2017-11-22T01:54:58.514Z,91.56
2017-11-22T01:55:58.499Z,91.75
2017-11-22T01:56:58.477Z,91.65
2017-11-22T01:57:58.457Z,91.94
2017-11-22T01:58:58.438Z,91.56
2017-11-22T01:59:58.418Z,91.27
2017-11-22T02:00:58.403Z,91.75
2017-11-22T02:01:58.387Z,91.37
2017-11-22T02:02:58.363Z,91.75
2017-11-22T02:03:58.349Z,91.37
2017-11-22T02:04:58.327Z,91.56
2017-11-22T02:05:58.307Z,91.17
2017-11-22T02:06:58.288Z,91.56
2017-11-22T02:07:58.277Z,92.22
2017-11-22T02:08:58.251Z,91.65
2017-11-22T02:09:58.237Z,91.75
2017-11-22T02:10:58.222Z,91.84
2017-11-22T02:11:58.198Z,91.65
2017-11-22T02:12:58.181Z,91.84
2017-11-22T02:13:58.158Z,91.56
2017-11-22T02:14:58.140Z,91.56
2017-11-22T02:15:58.118Z,91.46
2017-11-22T02:16:58.100Z,91.94
2017-11-22T02:17:58.088Z,91.65
2017-11-22T02:18:58.062Z,91.37
2017-11-22T02:19:58.046Z,91.75
2017-11-22T02:20:58.027Z,91.37
2017-11-22T02:21:58.008Z,90.99
2017-11-22T02:22:57.993Z,91.56
2017-11-22T02:23:57.972Z,90.99
2017-11-22T02:24:57.952Z,91.17
2017-11-22T02:25:57.937Z,91.46
2017-11-22T02:26:57.921Z,91.46
2017-11-22T02:27:57.897Z,91.75
2017-11-22T02:28:57.876Z,91.84
2017-11-22T02:29:57.857Z,91.56
2017-11-22T02:30:57.842Z,91.37
2017-11-22T02:31:57.825Z,91.46
2017-11-22T02:32:57.800Z,91.56
2017-11-22T02:33:57.790Z,91.75
2017-11-22T02:34:57.770Z,91.56
2017-11-22T02:35:57.746Z,91.46
2017-11-22T02:36:57.729Z,90.80
2017-11-22T02:37:57.707Z,91.56
2017-11-22T02:38:57.691Z,92.03
2017-11-22T02:39:57.677Z,92.32
2017-11-22T02:40:57.660Z,92.13
2017-11-22T02:41:57.636Z,91.75
2017-11-22T02:42:57.613Z,91.75
2017-11-22T02:43:57.596Z,91.37
2017-11-22T02:44:57.578Z,91.46
2017-11-22T02:45:57.559Z,91.08
2017-11-22T02:46:57.538Z,91.37
2017-11-22T02:47:57.535Z,91.37
2017-11-22T02:48:57.501Z,90.99
2017-11-22T02:49:57.485Z,91.27
2017-11-22T02:50:57.473Z,91.75
2017-11-22T02:51:57.449Z,91.56
2017-11-22T02:52:57.429Z,91.75
2017-11-22T02:53:57.408Z,91.37
2017-11-22T02:54:57.393Z,91.27
2017-11-22T02:55:57.375Z,91.27
2017-11-22T02:56:57.358Z,90.99
2017-11-22T02:57:57.336Z,90.99
2017-11-22T02:58:57.316Z,91.17
2017-11-22T02:59:57.296Z,91.17
2017-11-22T03:00:57.278Z,91.37
2017-11-22T03:01:57.258Z,91.17
2017-11-22T03:02:57.239Z,92.22
2017-11-22T03:03:57.228Z,91.84
2017-11-22T03:04:57.209Z,91.75
2017-11-22T03:05:57.185Z,92.03
2017-11-22T03:06:57.168Z,91.08
2017-11-22T03:07:57.147Z,90.99
2017-11-22T03:08:57.127Z,91.27
2017-11-22T03:09:57.108Z,91.65
2017-11-22T03:10:57.097Z,91.27
2017-11-22T03:11:57.073Z,91.46
2017-11-22T03:12:57.075Z,90.99
2017-11-22T03:13:57.040Z,91.37
2017-11-22T03:14:57.018Z,91.56
2017-11-22T03:15:57.002Z,91.27
2017-11-22T03:16:56.979Z,91.75
2017-11-22T03:17:56.964Z,90.99
2017-11-22T03:18:56.947Z,90.84
2017-11-22T03:19:56.929Z,90.84
2017-11-22T03:20:56.917Z,90.89
2017-11-22T03:21:56.889Z,91.27
2017-11-22T03:22:56.869Z,91.31
2017-11-22T03:23:56.857Z,91.31
2017-11-22T03:24:56.837Z,91.37
2017-11-22T03:25:56.813Z,91.27
2017-11-22T03:26:56.793Z,91.31
2017-11-22T03:27:56.780Z,90.80
2017-11-22T03:28:56.758Z,90.46
2017-11-22T03:29:56.738Z,90.75
2017-11-22T03:30:56.729Z,90.46
2017-11-22T03:31:56.702Z,90.75
2017-11-22T03:32:56.681Z,91.31
2017-11-22T03:33:56.663Z,90.94
2017-11-22T03:34:56.648Z,91.03
2017-11-22T03:35:56.628Z,91.41
2017-11-22T03:36:56.619Z,90.46
2017-11-22T03:37:56.604Z,90.36
2017-11-22T03:38:56.570Z,91.13
2017-11-22T03:39:56.557Z,90.94
2017-11-22T03:40:56.536Z,91.70
2017-11-22T03:41:56.511Z,91.22
2017-11-22T03:42:56.497Z,91.41
2017-11-22T03:43:56.480Z,91.41
2017-11-22T03:44:56.458Z,90.94
2017-11-22T03:45:56.442Z,91.51
2017-11-22T03:46:56.425Z,91.31
2017-11-22T03:47:56.401Z,91.22
2017-11-22T03:48:56.386Z,91.60
2017-11-22T03:49:56.370Z,91.51
2017-11-22T03:50:56.347Z,91.60
2017-11-22T03:51:56.331Z,91.89
2017-11-22T03:52:56.310Z,91.94
2017-11-22T03:53:56.289Z,91.79
2017-11-22T03:54:56.272Z,91.70
2017-11-22T03:55:56.257Z,91.56
2017-11-22T03:56:56.236Z,91.03
2017-11-22T03:57:56.218Z,91.41
2017-11-22T03:58:56.202Z,91.79
2017-11-22T03:59:56.180Z,91.60
2017-11-22T04:00:56.167Z,91.79
2017-11-22T04:01:56.149Z,91.60
2017-11-22T04:02:56.125Z,91.31
2017-11-22T04:03:56.109Z,91.41
2017-11-22T04:04:56.087Z,91.51
2017-11-22T04:05:56.070Z,91.13
2017-11-22T04:06:56.054Z,91.60
2017-11-22T04:07:56.035Z,91.03
2017-11-22T04:08:56.014Z,91.79
2017-11-22T04:09:55.998Z,91.13
2017-11-22T04:10:55.976Z,91.60
2017-11-22T04:11:55.959Z,91.31
2017-11-22T04:12:55.938Z,90.94
2017-11-22T04:13:55.929Z,91.41
2017-11-22T04:14:55.910Z,91.31
2017-11-22T04:15:55.884Z,90.75
2017-11-22T04:16:55.865Z,90.56
2017-11-22T04:17:55.857Z,90.84
2017-11-22T04:18:55.837Z,91.41
2017-11-22T04:19:55.809Z,90.75
2017-11-22T04:20:55.788Z,91.03
2017-11-22T04:21:55.770Z,90.36
2017-11-22T04:22:55.751Z,90.75
2017-11-22T04:23:55.737Z,90.65
2017-11-22T04:24:55.715Z,90.56
2017-11-22T04:25:55.699Z,90.84
2017-11-22T04:26:55.678Z,89.70
2017-11-22T04:27:55.659Z,89.61
2017-11-22T04:28:55.648Z,89.98
2017-11-22T04:29:55.629Z,90.65
2017-11-22T04:30:55.603Z,90.56
2017-11-22T04:31:55.589Z,90.56
2017-11-22T04:32:55.563Z,90.36
2017-11-22T04:33:55.549Z,90.46
2017-11-22T04:34:55.529Z,90.75
2017-11-22T04:35:55.508Z,90.17
2017-11-22T04:36:55.492Z,90.56
2017-11-22T04:37:55.472Z,90.08
2017-11-22T04:38:55.455Z,90.08
2017-11-22T04:39:55.437Z,89.98
2017-11-22T04:40:55.420Z,89.32
2017-11-22T04:41:55.398Z,89.70
2017-11-22T04:42:55.382Z,89.79
2017-11-22T04:43:55.367Z,89.32
2017-11-22T04:44:55.343Z,89.61
2017-11-22T04:45:55.327Z,89.61
2017-11-22T04:46:55.303Z,89.89
2017-11-22T04:47:55.290Z,89.79
2017-11-22T04:48:55.266Z,89.70
2017-11-22T04:49:55.249Z,89.89
2017-11-22T04:50:55.236Z,90.17
2017-11-22T04:51:55.217Z,89.89
2017-11-22T04:52:55.192Z,90.56
2017-11-22T04:53:55.186Z,89.61
2017-11-22T04:54:55.159Z,89.61
2017-11-22T04:55:55.137Z,88.93
2017-11-22T04:56:55.119Z,89.89
2017-11-22T04:57:55.098Z,89.13
2017-11-22T04:58:55.082Z,89.51
2017-11-22T04:59:55.064Z,89.70
2017-11-22T05:00:55.042Z,89.89
2017-11-22T05:01:55.028Z,90.56
2017-11-22T05:02:55.019Z,90.56
2017-11-22T05:03:54.991Z,90.84
2017-11-22T05:04:54.969Z,90.75
2017-11-22T05:05:54.952Z,90.75
2017-11-22T05:06:54.932Z,90.75
2017-11-22T05:07:54.914Z,90.56
2017-11-22T05:08:54.897Z,90.65
2017-11-22T05:09:54.877Z,90.65
2017-11-22T05:10:54.858Z,91.03
2017-11-22T05:11:54.840Z,90.46
2017-11-22T05:12:54.825Z,90.94
2017-11-22T05:13:54.801Z,90.94
2017-11-22T05:14:54.781Z,91.03
2017-11-22T05:15:54.765Z,90.65
2017-11-22T05:16:54.753Z,90.46
2017-11-22T05:17:54.730Z,90.75
2017-11-22T05:18:54.708Z,90.94
2017-11-22T05:19:54.687Z,90.46
2017-11-22T05:20:54.670Z,90.94
2017-11-22T05:21:54.655Z,90.36
2017-11-22T05:22:54.630Z,91.03
2017-11-22T05:23:54.616Z,90.46
2017-11-22T05:24:54.599Z,91.03
2017-11-22T05:25:54.578Z,90.65
2017-11-22T05:26:54.557Z,91.03
2017-11-22T05:27:54.549Z,90.94
2017-11-22T05:28:54.520Z,90.46
2017-11-22T05:29:54.502Z,91.03
2017-11-22T05:30:54.488Z,90.75
2017-11-22T05:31:54.465Z,90.65
2017-11-22T05:32:54.449Z,90.36
2017-11-22T05:33:54.429Z,90.84
2017-11-22T05:34:54.408Z,90.56
2017-11-22T05:35:54.407Z,90.65
2017-11-22T05:36:54.378Z,89.41
2017-11-22T05:37:54.355Z,89.89
2017-11-22T05:38:54.338Z,89.79
2017-11-22T05:39:54.316Z,89.51
2017-11-22T05:40:54.313Z,89.79
2017-11-22T05:41:54.279Z,88.93
2017-11-22T05:42:54.262Z,89.61
2017-11-22T05:43:54.244Z,89.32
2017-11-22T05:44:54.227Z,89.51
2017-11-22T05:45:54.205Z,89.03
2017-11-22T05:46:54.189Z,89.13
2017-11-22T05:47:54.170Z,88.93
2017-11-22T05:48:54.166Z,89.61
2017-11-22T05:49:54.127Z,89.70
2017-11-22T05:50:54.126Z,90.08
2017-11-22T05:51:54.096Z,90.56
2017-11-22T05:52:54.076Z,90.75
2017-11-22T05:53:54.053Z,90.56
2017-11-22T05:54:54.051Z,90.94
2017-11-22T05:55:54.021Z,90.65
2017-11-22T05:56:53.998Z,90.46
2017-11-22T05:57:53.980Z,90.36
2017-11-22T05:58:53.965Z,90.56
2017-11-22T05:59:53.947Z,90.84
2017-11-22T06:00:53.934Z,90.17
2017-11-22T06:01:53.909Z,90.17
2017-11-22T06:02:53.888Z,90.08
2017-11-22T06:03:53.872Z,90.75
2017-11-22T06:04:53.856Z,89.89
2017-11-22T06:05:53.833Z,89.79
2017-11-22T06:06:53.818Z,89.13
2017-11-22T06:07:53.798Z,88.84
2017-11-22T06:08:53.780Z,89.22
2017-11-22T06:09:53.763Z,88.84
2017-11-22T06:10:53.738Z,88.65
2017-11-22T06:11:53.722Z,89.03
2017-11-22T06:12:53.710Z,88.56
2017-11-22T06:13:53.683Z,88.27
2017-11-22T06:14:53.667Z,88.27
2017-11-22T06:15:53.653Z,87.60
2017-11-22T06:16:53.635Z,88.46
2017-11-22T06:17:53.608Z,87.98
2017-11-22T06:18:53.591Z,87.98
2017-11-22T06:19:53.577Z,87.70
2017-11-22T06:20:53.556Z,87.98
2017-11-22T06:21:53.546Z,87.79
2017-11-22T06:22:53.517Z,86.94
2017-11-22T06:23:53.498Z,87.13
2017-11-22T06:24:53.488Z,87.60
2017-11-22T06:25:53.462Z,87.41
2017-11-22T06:26:53.446Z,88.56
2017-11-22T06:27:53.424Z,87.70
2017-11-22T06:28:53.405Z,87.23
2017-11-22T06:29:53.390Z,88.46
2017-11-22T06:30:53.369Z,87.79
2017-11-22T06:31:53.351Z,88.08
2017-11-22T06:32:53.334Z,87.23
2017-11-22T06:33:53.313Z,87.51
2017-11-22T06:34:53.294Z,87.32
2017-11-22T06:35:53.279Z,87.32
2017-11-22T06:36:53.260Z,87.23
2017-11-22T06:37:53.238Z,87.51
2017-11-22T06:38:53.224Z,87.89
2017-11-22T06:39:53.208Z,86.36
2017-11-22T06:40:53.189Z,86.75
2017-11-22T06:41:53.177Z,86.98
2017-11-22T06:42:53.148Z,87.03
2017-11-22T06:43:53.131Z,86.84
2017-11-22T06:44:53.113Z,87.23
2017-11-22T06:45:53.093Z,86.84
2017-11-22T06:46:53.078Z,87.70
2017-11-22T06:47:53.061Z,87.70
2017-11-22T06:48:53.039Z,87.70
2017-11-22T06:49:53.019Z,87.60
2017-11-22T06:50:52.997Z,87.32
2017-11-22T06:51:52.983Z,87.41
2017-11-22T06:52:52.962Z,87.51
2017-11-22T06:53:52.950Z,87.51
2017-11-22T06:54:52.929Z,86.75
2017-11-22T06:55:52.908Z,87.23
2017-11-22T06:56:52.889Z,86.55
2017-11-22T06:57:52.876Z,86.55
2017-11-22T06:58:52.853Z,86.69
2017-11-22T06:59:52.837Z,86.32
2017-11-22T07:00:52.827Z,87.36
2017-11-22T07:01:52.796Z,86.32
2017-11-22T07:02:52.778Z,86.60
2017-11-22T07:03:52.759Z,87.03
2017-11-22T07:04:52.740Z,86.60
2017-11-22T07:05:52.726Z,86.79
2017-11-22T07:06:52.706Z,86.98
2017-11-22T07:07:52.686Z,86.22
2017-11-22T07:08:52.669Z,86.18
2017-11-22T07:09:52.648Z,86.32
2017-11-22T07:10:52.633Z,86.41
2017-11-22T07:11:52.619Z,86.18
2017-11-22T07:12:52.602Z,86.79
2017-11-22T07:13:52.575Z,85.64
2017-11-22T07:14:52.557Z,86.03
2017-11-22T07:15:52.543Z,86.32
2017-11-22T07:16:52.521Z,85.93
2017-11-22T07:17:52.507Z,86.12
2017-11-22T07:18:52.487Z,86.88
2017-11-22T07:19:52.465Z,86.41
2017-11-22T07:20:52.449Z,86.32
2017-11-22T07:21:52.429Z,85.93
2017-11-22T07:22:52.409Z,86.41
2017-11-22T07:23:52.397Z,85.64
2017-11-22T07:24:52.380Z,85.64
2017-11-22T07:25:52.353Z,85.93
2017-11-22T07:26:52.343Z,86.03
2017-11-22T07:27:52.328Z,86.41
2017-11-22T07:28:52.298Z,86.03
2017-11-22T07:29:52.282Z,86.32
2017-11-22T07:30:52.268Z,85.74
2017-11-22T07:31:52.248Z,86.32
2017-11-22T07:32:52.227Z,86.03
2017-11-22T07:33:52.216Z,86.03
2017-11-22T07:34:52.190Z,85.55
2017-11-22T07:35:52.169Z,85.84
2017-11-22T07:36:52.150Z,85.84
2017-11-22T07:37:52.136Z,85.84
2017-11-22T07:38:52.115Z,85.93
2017-11-22T07:39:52.102Z,85.64
2017-11-22T07:40:52.077Z,86.03
2017-11-22T07:41:52.059Z,86.12
2017-11-22T07:42:52.043Z,86.32
2017-11-22T07:43:52.029Z,86.22
2017-11-22T07:44:52.013Z,85.84
2017-11-22T07:45:51.984Z,85.93
2017-11-22T07:46:51.969Z,85.27
2017-11-22T07:47:51.948Z,85.93
2017-11-22T07:48:51.934Z,85.84
2017-11-22T07:49:51.909Z,85.08
2017-11-22T07:50:51.893Z,85.36
2017-11-22T07:51:51.879Z,84.79
2017-11-22T07:52:51.857Z,84.50
2017-11-22T07:53:51.841Z,85.17
2017-11-22T07:54:51.825Z,86.03
2017-11-22T07:55:51.801Z,85.17
2017-11-22T07:56:51.792Z,86.12
2017-11-22T07:57:51.769Z,85.46
2017-11-22T07:58:51.745Z,85.17
2017-11-22T07:59:51.730Z,85.84
2017-11-22T08:00:51.712Z,85.55
2017-11-22T08:01:51.689Z,85.17
2017-11-22T08:02:51.679Z,85.36
2017-11-22T08:03:51.657Z,84.98
2017-11-22T08:04:51.638Z,85.27
2017-11-22T08:05:51.615Z,85.27
2017-11-22T08:06:51.596Z,85.64
2017-11-22T08:07:51.579Z,85.27
2017-11-22T08:08:51.563Z,85.08
2017-11-22T08:09:51.555Z,85.36
2017-11-22T08:10:51.524Z,85.36
2017-11-22T08:11:51.509Z,84.60
2017-11-22T08:12:51.499Z,84.22
2017-11-22T08:13:51.468Z,85.17
2017-11-22T08:14:51.454Z,84.88
2017-11-22T08:15:51.442Z,85.27
2017-11-22T08:16:51.417Z,85.08
2017-11-22T08:17:51.396Z,85.64
2017-11-22T08:18:51.380Z,85.36
2017-11-22T08:19:51.360Z,85.36
2017-11-22T08:20:51.343Z,85.17
2017-11-22T08:21:51.325Z,85.36
2017-11-22T08:22:51.306Z,85.17
2017-11-22T08:23:51.287Z,85.08
2017-11-22T08:24:51.269Z,85.08
2017-11-22T08:25:51.246Z,84.60
2017-11-22T08:26:51.234Z,85.17
2017-11-22T08:27:51.217Z,84.69
2017-11-22T08:28:51.192Z,85.17
2017-11-22T08:29:51.173Z,84.60
2017-11-22T08:30:51.162Z,85.08
2017-11-22T08:31:51.137Z,85.36
2017-11-22T08:32:51.131Z,85.17
2017-11-22T08:33:51.107Z,85.36
2017-11-22T08:34:51.085Z,85.17
2017-11-22T08:35:51.065Z,84.69
2017-11-22T08:36:51.050Z,85.55
2017-11-22T08:37:51.026Z,84.22
2017-11-22T08:38:51.010Z,84.60
2017-11-22T08:39:51.002Z,84.22
2017-11-22T08:40:50.980Z,84.41
2017-11-22T08:41:50.955Z,84.60
2017-11-22T08:42:50.934Z,84.88
2017-11-22T08:43:50.918Z,84.60
2017-11-22T08:44:50.899Z,84.41
2017-11-22T08:45:50.883Z,84.41
2017-11-22T08:46:50.864Z,84.41
2017-11-22T08:47:50.845Z,84.41
2017-11-22T08:48:50.835Z,84.69
2017-11-22T08:49:50.804Z,84.69
2017-11-22T08:50:50.789Z,84.74
2017-11-22T08:51:50.773Z,84.41
2017-11-22T08:52:50.756Z,84.22
2017-11-22T08:53:50.733Z,84.03
2017-11-22T08:54:50.717Z,84.22
2017-11-22T08:55:50.698Z,84.79
2017-11-22T08:56:50.688Z,84.60
2017-11-22T08:57:50.662Z,84.60
2017-11-22T08:58:50.648Z,84.31
2017-11-22T08:59:50.626Z,84.79
2017-11-22T09:00:50.608Z,84.74
2017-11-22T09:01:50.588Z,84.69
2017-11-22T09:02:50.567Z,84.31
2017-11-22T09:03:50.560Z,84.07
2017-11-22T09:04:50.536Z,84.69
2017-11-22T09:05:50.520Z,83.97
2017-11-22T09:06:50.504Z,84.03
2017-11-22T09:07:50.477Z,83.84
2017-11-22T09:08:50.464Z,83.88
2017-11-22T09:09:50.440Z,83.69
2017-11-22T09:10:50.426Z,84.26
2017-11-22T09:11:50.409Z,84.26
2017-11-22T09:12:50.387Z,84.26
2017-11-22T09:13:50.369Z,84.64
2017-11-22T09:14:50.360Z,83.88
2017-11-22T09:15:50.337Z,83.50
2017-11-22T09:16:50.318Z,84.36
2017-11-22T09:17:50.297Z,83.69
2017-11-22T09:18:50.275Z,83.69
2017-11-22T09:19:50.259Z,84.45
2017-11-22T09:20:50.244Z,84.45
2017-11-22T09:21:50.225Z,84.36
2017-11-22T09:22:50.204Z,84.45
2017-11-22T09:23:50.187Z,84.64
2017-11-22T09:24:50.206Z,83.40
2017-11-22T09:25:50.148Z,83.59
2017-11-22T09:26:50.136Z,83.78
2017-11-22T09:27:50.115Z,84.07
2017-11-22T09:28:50.099Z,84.36
2017-11-22T09:29:50.077Z,84.45
2017-11-22T09:30:50.058Z,84.36
2017-11-22T09:31:50.040Z,84.16
2017-11-22T09:32:50.026Z,84.45
2017-11-22T09:33:50.007Z,84.16
2017-11-22T09:34:49.990Z,83.88
2017-11-22T09:35:49.967Z,84.16
2017-11-22T09:36:49.952Z,84.45
2017-11-22T09:37:49.927Z,83.97
2017-11-22T09:38:49.930Z,84.26
2017-11-22T09:39:49.898Z,83.40
2017-11-22T09:40:49.879Z,83.21
2017-11-22T09:41:49.858Z,83.59
2017-11-22T09:42:49.843Z,83.69
2017-11-22T09:43:49.824Z,83.40
2017-11-22T09:44:49.815Z,83.59
2017-11-22T09:45:49.787Z,83.59
2017-11-22T09:46:49.769Z,82.92
2017-11-22T09:47:49.755Z,83.59
2017-11-22T09:48:49.738Z,83.12
2017-11-22T09:49:49.714Z,83.59
2017-11-22T09:50:49.693Z,83.21
2017-11-22T09:51:49.679Z,83.21
2017-11-22T09:52:49.659Z,83.21
2017-11-22T09:53:49.641Z,82.92
2017-11-22T09:54:49.628Z,83.12
2017-11-22T09:55:49.603Z,83.40
2017-11-22T09:56:49.588Z,83.31
2017-11-22T09:57:49.565Z,83.02
2017-11-22T09:58:49.548Z,82.83
2017-11-22T09:59:49.536Z,82.45
2017-11-22T10:00:49.516Z,83.21
2017-11-22T10:01:49.498Z,83.02
2017-11-22T10:02:49.479Z,83.40
2017-11-22T10:03:49.459Z,82.35
2017-11-22T10:04:49.447Z,82.45
2017-11-22T10:05:49.423Z,82.83
2017-11-22T10:06:49.405Z,83.40
2017-11-22T10:07:49.384Z,81.97
2017-11-22T10:08:49.369Z,82.92
2017-11-22T10:09:49.352Z,82.26
2017-11-22T10:10:49.336Z,83.02
2017-11-22T10:11:49.319Z,83.31
2017-11-22T10:12:49.295Z,83.69
2017-11-22T10:13:49.283Z,82.26
2017-11-22T10:14:49.262Z,83.02
2017-11-22T10:15:49.248Z,82.92
2017-11-22T10:16:49.223Z,84.07
2017-11-22T10:17:49.210Z,82.64
2017-11-22T10:18:49.199Z,83.02
2017-11-22T10:19:49.169Z,83.21
2017-11-22T10:20:49.157Z,83.21
2017-11-22T10:21:49.138Z,83.88
2017-11-22T10:22:49.120Z,83.02
2017-11-22T10:23:49.098Z,83.21
2017-11-22T10:24:49.082Z,83.59
2017-11-22T10:25:49.071Z,82.73
2017-11-22T10:26:49.043Z,82.73
2017-11-22T10:27:49.028Z,82.83
2017-11-22T10:28:49.006Z,82.92
2017-11-22T10:29:48.988Z,82.64
2017-11-22T10:30:48.972Z,83.02
2017-11-22T10:31:48.954Z,82.64
2017-11-22T10:32:48.940Z,82.92
2017-11-22T10:33:48.918Z,82.92
2017-11-22T10:34:48.906Z,82.83
2017-11-22T10:35:48.883Z,82.45
2017-11-22T10:36:48.876Z,82.73
2017-11-22T10:37:48.846Z,83.40
2017-11-22T10:38:48.837Z,83.97
2017-11-22T10:39:48.814Z,82.92
2017-11-22T10:40:48.792Z,83.40
2017-11-22T10:41:48.774Z,82.83
2017-11-22T10:42:48.754Z,82.92
2017-11-22T10:43:48.749Z,83.78
2017-11-22T10:44:48.729Z,83.59
2017-11-22T10:45:48.704Z,82.73
2017-11-22T10:46:48.693Z,82.35
2017-11-22T10:47:48.669Z,82.73
2017-11-22T10:48:48.656Z,82.83
2017-11-22T10:49:48.631Z,82.35
2017-11-22T10:50:48.618Z,83.59
2017-11-22T10:51:48.597Z,82.54
2017-11-22T10:52:48.574Z,82.73
2017-11-22T10:53:48.560Z,83.12
2017-11-22T10:54:48.540Z,83.02
2017-11-22T10:55:48.523Z,82.83
2017-11-22T10:56:48.508Z,83.59
2017-11-22T10:57:48.488Z,83.02
2017-11-22T10:58:48.466Z,82.73
2017-11-22T10:59:48.449Z,83.02
2017-11-22T11:00:48.449Z,83.21
2017-11-22T11:01:48.414Z,83.40
2017-11-22T11:02:48.396Z,83.21
2017-11-22T11:03:48.378Z,83.02
2017-11-22T11:04:48.360Z,83.50
2017-11-22T11:05:48.339Z,83.21
2017-11-22T11:06:48.323Z,82.92
2017-11-22T11:07:48.312Z,84.26
2017-11-22T11:08:48.290Z,83.31
2017-11-22T11:09:48.271Z,83.31
2017-11-22T11:10:48.249Z,82.73
2017-11-22T11:11:48.231Z,82.54
2017-11-22T11:12:48.224Z,82.83
2017-11-22T11:13:48.196Z,82.73
2017-11-22T11:14:48.178Z,83.31
2017-11-22T11:15:48.157Z,83.40
2017-11-22T11:16:48.141Z,83.97
2017-11-22T11:17:48.128Z,83.69
2017-11-22T11:18:48.113Z,83.59
2017-11-22T11:19:48.101Z,83.02
2017-11-22T11:20:48.071Z,82.54
2017-11-22T11:21:48.049Z,82.35
2017-11-22T11:22:48.043Z,81.97
2017-11-22T11:23:48.015Z,82.45
2017-11-22T11:24:48.003Z,82.26
2017-11-22T11:25:47.982Z,81.97
2017-11-22T11:26:47.964Z,82.17
2017-11-22T11:27:47.949Z,82.35
2017-11-22T11:28:47.929Z,82.35
2017-11-22T11:29:47.908Z,81.21
2017-11-22T11:30:47.902Z,81.49
2017-11-22T11:31:47.869Z,81.88
2017-11-22T11:32:47.858Z,81.12
2017-11-22T11:33:47.834Z,82.17
2017-11-22T11:34:47.818Z,81.97
2017-11-22T11:35:47.799Z,82.07
2017-11-22T11:36:47.789Z,80.16
2017-11-22T11:37:47.773Z,80.44
2017-11-22T11:38:47.753Z,79.68
2017-11-22T11:39:47.728Z,79.78
2017-11-22T11:40:47.707Z,79.40
2017-11-22T11:41:47.700Z,79.49
2017-11-22T11:42:47.683Z,79.88
2017-11-22T11:43:47.655Z,80.44
2017-11-22T11:44:47.635Z,80.16
2017-11-22T11:45:47.621Z,79.68
2017-11-22T11:46:47.599Z,79.68
2017-11-22T11:47:47.580Z,79.49
2017-11-22T11:48:47.565Z,79.68
2017-11-22T11:49:47.543Z,80.83
2017-11-22T11:50:47.536Z,81.30
2017-11-22T11:51:47.513Z,80.92
2017-11-22T11:52:47.493Z,80.83
2017-11-22T11:53:47.478Z,79.49
2017-11-22T11:54:47.454Z,79.49
2017-11-22T11:55:47.443Z,79.11
2017-11-22T11:56:47.419Z,80.07
2017-11-22T11:57:47.404Z,79.59
2017-11-22T11:58:47.387Z,81.02
2017-11-22T11:59:47.367Z,79.68
2017-11-22T12:00:47.350Z,79.49
2017-11-22T12:01:47.334Z,79.78
2017-11-22T12:02:47.311Z,79.72
2017-11-22T12:03:47.298Z,79.91
2017-11-22T12:04:47.276Z,80.58
2017-11-22T12:05:47.260Z,80.39
2017-11-22T12:06:47.244Z,80.77
2017-11-22T12:07:47.226Z,80.11
2017-11-22T12:08:47.209Z,79.25
2017-11-22T12:09:47.201Z,79.82
2017-11-22T12:10:47.169Z,78.10
2017-11-22T12:11:47.153Z,77.44
2017-11-22T12:12:47.136Z,77.91
2017-11-22T12:13:47.120Z,78.10
2017-11-22T12:14:47.099Z,77.62
2017-11-22T12:15:47.083Z,77.72
2017-11-22T12:16:47.075Z,78.01
2017-11-22T12:17:47.049Z,77.91
2017-11-22T12:18:47.027Z,77.44
2017-11-22T12:19:47.010Z,78.58
2017-11-22T12:20:46.997Z,78.58
2017-11-22T12:21:46.983Z,78.10
2017-11-22T12:22:46.959Z,77.72
2017-11-22T12:23:46.942Z,78.58
2017-11-22T12:24:46.928Z,77.53
2017-11-22T12:25:46.907Z,79.15
2017-11-22T12:26:46.887Z,78.30
2017-11-22T12:27:46.879Z,78.58
2017-11-22T12:28:46.852Z,78.01
2017-11-22T12:29:46.838Z,78.20
2017-11-22T12:30:46.819Z,78.20
2017-11-22T12:31:46.797Z,77.62
2017-11-22T12:32:46.783Z,78.01
2017-11-22T12:33:46.763Z,78.20
2017-11-22T12:34:46.745Z,78.30
2017-11-22T12:35:46.729Z,77.25
2017-11-22T12:36:46.709Z,77.44
2017-11-22T12:37:46.696Z,77.72
2017-11-22T12:38:46.680Z,77.62
2017-11-22T12:39:46.659Z,78.10
2017-11-22T12:40:46.639Z,78.67
2017-11-22T12:41:46.628Z,79.25
2017-11-22T12:42:46.605Z,78.30
2017-11-22T12:43:46.587Z,78.58
2017-11-22T12:44:46.568Z,76.86
2017-11-22T12:45:46.552Z,77.25
2017-11-22T12:46:46.541Z,77.06
2017-11-22T12:47:46.520Z,77.25
2017-11-22T12:48:46.503Z,78.01
2017-11-22T12:49:46.482Z,77.72
2017-11-22T12:50:46.484Z,77.15
2017-11-22T12:51:46.448Z,76.96